createdAt,value
2018-04-09T00:00:12.660Z,954.57
2018-04-09T00:01:12.654Z,954.56
2018-04-09T00:02:12.652Z,954.57
2018-04-09T00:03:12.664Z,954.55
2018-04-09T00:04:12.647Z,954.53
2018-04-09T00:05:12.652Z,954.51
2018-04-09T00:06:12.648Z,954.51
2018-04-09T00:07:12.680Z,954.52
2018-04-09T00:08:12.670Z,954.49
2018-04-09T00:09:12.646Z,954.44
2018-04-09T00:10:12.643Z,954.45
2018-04-09T00:11:12.641Z,954.47
2018-04-09T00:12:12.666Z,954.43
2018-04-09T00:13:12.653Z,954.47
2018-04-09T00:14:12.635Z,954.47
2018-04-09T00:15:12.636Z,954.45
2018-04-09T00:16:12.631Z,954.41
2018-04-09T00:17:12.637Z,954.43
2018-04-09T00:18:12.627Z,954.45
2018-04-09T00:19:12.647Z,954.47
2018-04-09T00:20:12.637Z,954.43
2018-04-09T00:21:12.631Z,954.43
2018-04-09T00:22:12.626Z,954.39
2018-04-09T00:23:12.626Z,954.43
2018-04-09T00:24:12.619Z,954.42
2018-04-09T00:25:12.619Z,954.38
2018-04-09T00:26:12.618Z,954.36
2018-04-09T00:27:12.614Z,954.41
2018-04-09T00:28:12.620Z,954.36
2018-04-09T00:29:12.614Z,954.38
2018-04-09T00:30:12.625Z,954.39
2018-04-09T00:31:12.610Z,954.37
2018-04-09T00:32:12.624Z,954.35
2018-04-09T00:33:12.607Z,954.32
2018-04-09T00:34:12.615Z,954.32
2018-04-09T00:35:12.602Z,954.28
2018-04-09T00:36:12.624Z,954.26
2018-04-09T00:37:12.603Z,954.25
2018-04-09T00:38:12.600Z,954.25
2018-04-09T00:39:12.603Z,954.23
2018-04-09T00:40:12.593Z,954.23
2018-04-09T00:41:12.594Z,954.20
2018-04-09T00:42:12.601Z,954.23
2018-04-09T00:43:12.589Z,954.20
2018-04-09T00:44:12.587Z,954.20
2018-04-09T00:45:12.590Z,954.26
2018-04-09T00:46:12.586Z,954.27
2018-04-09T00:47:12.605Z,954.28
2018-04-09T00:48:12.581Z,954.27
2018-04-09T00:49:12.577Z,954.28
2018-04-09T00:50:12.583Z,954.27
2018-04-09T00:51:12.581Z,954.28
2018-04-09T00:52:12.577Z,954.26
2018-04-09T00:53:12.577Z,954.27
2018-04-09T00:54:12.601Z,954.28
2018-04-09T00:55:12.570Z,954.24
2018-04-09T00:56:12.578Z,954.27
2018-04-09T00:57:12.577Z,954.21
2018-04-09T00:58:12.574Z,954.23
2018-04-09T00:59:12.566Z,954.22
2018-04-09T01:00:12.564Z,954.20
2018-04-09T01:01:12.565Z,954.20
2018-04-09T01:02:12.564Z,954.17
2018-04-09T01:03:12.588Z,954.13
2018-04-09T01:04:12.557Z,954.16
2018-04-09T01:05:12.557Z,954.12
2018-04-09T01:06:12.553Z,954.14
2018-04-09T01:07:12.552Z,954.11
2018-04-09T01:08:12.553Z,954.09
2018-04-09T01:09:12.572Z,954.05
2018-04-09T01:10:12.553Z,954.14
2018-04-09T01:11:12.545Z,954.14
2018-04-09T01:12:12.588Z,954.07
2018-04-09T01:13:12.541Z,954.13
2018-04-09T01:14:12.539Z,954.10
2018-04-09T01:15:12.537Z,954.13
2018-04-09T01:16:12.541Z,954.13
2018-04-09T01:17:12.534Z,954.06
2018-04-09T01:18:12.532Z,954.12
2018-04-09T01:19:12.531Z,954.12
2018-04-09T01:20:12.540Z,954.14
2018-04-09T01:21:12.529Z,954.12
2018-04-09T01:22:12.552Z,954.14
2018-04-09T01:23:12.522Z,954.15
2018-04-09T01:24:12.532Z,954.17
2018-04-09T01:25:12.523Z,954.18
2018-04-09T01:26:12.529Z,954.22
2018-04-09T01:27:12.513Z,954.20
2018-04-09T01:28:12.534Z,954.21
2018-04-09T01:29:12.520Z,954.23
2018-04-09T01:30:12.509Z,954.26
2018-04-09T01:31:12.507Z,954.24
2018-04-09T01:32:12.509Z,954.29
2018-04-09T01:33:12.516Z,954.25
2018-04-09T01:34:12.505Z,954.24
2018-04-09T01:35:12.500Z,954.24
2018-04-09T01:36:12.498Z,954.22
2018-04-09T01:37:12.499Z,954.22
2018-04-09T01:38:12.497Z,954.16
2018-04-09T01:39:12.500Z,954.22
2018-04-09T01:40:12.494Z,954.22
2018-04-09T01:41:12.494Z,954.19
2018-04-09T01:42:12.488Z,954.11
2018-04-09T01:43:12.529Z,954.18
2018-04-09T01:44:12.489Z,954.14
2018-04-09T01:45:12.497Z,954.13
2018-04-09T01:46:12.482Z,954.16
2018-04-09T01:47:12.480Z,954.12
2018-04-09T01:48:12.478Z,954.12
2018-04-09T01:49:12.477Z,954.10
2018-04-09T01:50:12.475Z,954.10
2018-04-09T01:51:12.471Z,954.07
2018-04-09T01:52:12.470Z,954.07
2018-04-09T01:53:12.468Z,954.03
2018-04-09T01:54:12.467Z,954.01
2018-04-09T01:55:12.465Z,954.02
2018-04-09T01:56:12.463Z,954.04
2018-04-09T01:57:12.458Z,954.01
2018-04-09T01:58:12.458Z,954.01
2018-04-09T01:59:12.456Z,954.00
2018-04-09T02:00:12.453Z,953.99
2018-04-09T02:01:12.451Z,954.02
2018-04-09T02:02:12.446Z,954.01
2018-04-09T02:03:12.444Z,954.03
2018-04-09T02:04:12.448Z,954.06
2018-04-09T02:05:12.440Z,954.02
2018-04-09T02:06:12.437Z,954.01
2018-04-09T02:07:12.460Z,954.01
2018-04-09T02:08:12.443Z,954.05
2018-04-09T02:09:12.434Z,953.99
2018-04-09T02:10:12.437Z,953.98
2018-04-09T02:11:12.432Z,954.01
2018-04-09T02:12:12.457Z,954.01
2018-04-09T02:13:12.428Z,953.99
2018-04-09T02:14:12.426Z,954.00
2018-04-09T02:15:12.430Z,953.98
2018-04-09T02:16:12.418Z,954.01
2018-04-09T02:17:12.419Z,954.03
2018-04-09T02:18:12.414Z,954.01
2018-04-09T02:19:12.417Z,953.97
2018-04-09T02:20:12.413Z,953.99
2018-04-09T02:21:12.410Z,953.97
2018-04-09T02:22:12.407Z,954.05
2018-04-09T02:23:12.404Z,954.00
2018-04-09T02:24:12.407Z,954.03
2018-04-09T02:25:12.409Z,954.00
2018-04-09T02:26:12.396Z,954.04
2018-04-09T02:27:12.396Z,954.04
2018-04-09T02:28:12.394Z,954.06
2018-04-09T02:29:12.389Z,954.07
2018-04-09T02:30:12.389Z,954.04
2018-04-09T02:31:12.399Z,954.04
2018-04-09T02:32:12.383Z,954.07
2018-04-09T02:33:12.384Z,954.04
2018-04-09T02:34:12.381Z,954.02
2018-04-09T02:35:12.410Z,954.03
2018-04-09T02:36:12.376Z,953.99
2018-04-09T02:37:12.372Z,954.02
2018-04-09T02:38:12.375Z,953.98
2018-04-09T02:39:12.376Z,953.97
2018-04-09T02:40:12.368Z,953.93
2018-04-09T02:41:12.374Z,953.90
2018-04-09T02:42:12.363Z,953.88
2018-04-09T02:43:12.364Z,953.85
2018-04-09T02:44:12.359Z,953.85
2018-04-09T02:45:12.389Z,953.83
2018-04-09T02:46:12.361Z,953.85
2018-04-09T02:47:12.351Z,953.87
2018-04-09T02:48:12.351Z,953.87
2018-04-09T02:49:12.351Z,953.88
2018-04-09T02:50:12.343Z,953.88
2018-04-09T02:51:12.342Z,953.91
2018-04-09T02:52:12.340Z,953.91
2018-04-09T02:53:12.342Z,953.92
2018-04-09T02:54:12.336Z,953.93
2018-04-09T02:55:12.341Z,953.93
2018-04-09T02:56:12.334Z,953.93
2018-04-09T02:57:12.345Z,953.92
2018-04-09T02:58:12.330Z,953.95
2018-04-09T02:59:12.325Z,953.91
2018-04-09T03:00:12.322Z,953.94
2018-04-09T03:01:12.322Z,953.95
2018-04-09T03:02:12.321Z,953.94
2018-04-09T03:03:12.316Z,953.94
2018-04-09T03:04:12.310Z,953.93
2018-04-09T03:05:12.318Z,953.90
2018-04-09T03:06:12.306Z,953.94
2018-04-09T03:07:12.305Z,953.95
2018-04-09T03:08:12.304Z,953.95
2018-04-09T03:09:12.300Z,953.94
2018-04-09T03:10:12.299Z,953.95
2018-04-09T03:11:12.295Z,953.95
2018-04-09T03:12:12.295Z,953.99
2018-04-09T03:13:12.293Z,953.97
2018-04-09T03:14:12.288Z,953.90
2018-04-09T03:15:12.284Z,953.91
2018-04-09T03:16:12.284Z,953.95
2018-04-09T03:17:12.279Z,953.92
2018-04-09T03:18:12.282Z,953.90
2018-04-09T03:19:12.275Z,953.93
2018-04-09T03:20:12.272Z,953.95
2018-04-09T03:21:12.271Z,953.94
2018-04-09T03:22:12.269Z,953.96
2018-04-09T03:23:12.266Z,953.98
2018-04-09T03:24:12.263Z,953.96
2018-04-09T03:25:12.269Z,954.03
2018-04-09T03:26:12.259Z,954.01
2018-04-09T03:27:12.255Z,954.02
2018-04-09T03:28:12.252Z,954.04
2018-04-09T03:29:12.252Z,954.04
2018-04-09T03:30:12.249Z,954.06
2018-04-09T03:31:12.247Z,954.12
2018-04-09T03:32:12.244Z,954.08
2018-04-09T03:33:12.244Z,954.13
2018-04-09T03:34:12.239Z,954.08
2018-04-09T03:35:12.236Z,954.08
2018-04-09T03:36:12.234Z,954.08
2018-04-09T03:37:12.231Z,954.02
2018-04-09T03:38:12.231Z,954.06
2018-04-09T03:39:12.226Z,954.00
2018-04-09T03:40:12.224Z,954.01
2018-04-09T03:41:12.221Z,954.04
2018-04-09T03:42:12.218Z,953.99
2018-04-09T03:43:12.216Z,954.05
2018-04-09T03:44:12.216Z,954.04
2018-04-09T03:45:12.214Z,954.01
2018-04-09T03:46:12.211Z,954.00
2018-04-09T03:47:12.207Z,954.04
2018-04-09T03:48:12.204Z,954.04
2018-04-09T03:49:12.203Z,954.00
2018-04-09T03:50:12.200Z,954.01
2018-04-09T03:51:12.196Z,953.99
2018-04-09T03:52:12.199Z,954.01
2018-04-09T03:53:12.193Z,954.02
2018-04-09T03:54:12.190Z,954.00
2018-04-09T03:55:12.186Z,953.99
2018-04-09T03:56:12.187Z,953.98
2018-04-09T03:57:12.183Z,953.97
2018-04-09T03:58:12.184Z,953.97
2018-04-09T03:59:12.205Z,953.98
2018-04-09T04:00:12.175Z,953.94
2018-04-09T04:01:12.172Z,953.97
2018-04-09T04:02:12.172Z,953.92
2018-04-09T04:03:12.169Z,953.90
2018-04-09T04:04:12.165Z,953.87
2018-04-09T04:05:12.163Z,953.86
2018-04-09T04:06:12.161Z,953.84
2018-04-09T04:07:12.156Z,953.86
2018-04-09T04:08:12.155Z,953.85
2018-04-09T04:09:12.152Z,953.83
2018-04-09T04:10:12.149Z,953.86
2018-04-09T04:11:12.146Z,953.84
2018-04-09T04:12:12.144Z,953.88
2018-04-09T04:13:12.144Z,953.88
2018-04-09T04:14:12.143Z,953.85
2018-04-09T04:15:12.136Z,953.85
2018-04-09T04:16:12.138Z,953.83
2018-04-09T04:17:12.132Z,953.85
2018-04-09T04:18:12.133Z,953.82
2018-04-09T04:19:12.124Z,953.84
2018-04-09T04:20:12.129Z,953.84
2018-04-09T04:21:12.121Z,953.85
2018-04-09T04:22:12.127Z,953.84
2018-04-09T04:23:12.115Z,953.85
2018-04-09T04:24:12.113Z,953.88
2018-04-09T04:25:12.113Z,953.84
2018-04-09T04:26:12.108Z,953.85
2018-04-09T04:27:12.105Z,953.86
2018-04-09T04:28:12.103Z,953.85
2018-04-09T04:29:12.102Z,953.85
2018-04-09T04:30:12.098Z,953.82
2018-04-09T04:31:12.108Z,953.80
2018-04-09T04:32:12.093Z,953.76
2018-04-09T04:33:12.096Z,953.78
2018-04-09T04:34:12.088Z,953.76
2018-04-09T04:35:12.085Z,953.78
2018-04-09T04:36:12.082Z,953.80
2018-04-09T04:37:12.079Z,953.79
2018-04-09T04:38:12.081Z,953.82
2018-04-09T04:39:12.075Z,953.83
2018-04-09T04:40:12.076Z,953.82
2018-04-09T04:41:12.072Z,953.85
2018-04-09T04:42:12.067Z,953.85
2018-04-09T04:43:12.062Z,953.86
2018-04-09T04:44:12.064Z,953.84
2018-04-09T04:45:12.060Z,953.80
2018-04-09T04:46:12.059Z,953.81
2018-04-09T04:47:12.054Z,953.81
2018-04-09T04:48:12.052Z,953.75
2018-04-09T04:49:12.049Z,953.82
2018-04-09T04:50:12.048Z,953.79
2018-04-09T04:51:12.044Z,953.77
2018-04-09T04:52:12.042Z,953.80
2018-04-09T04:53:12.040Z,953.78
2018-04-09T04:54:12.039Z,953.76
2018-04-09T04:55:12.034Z,953.75
2018-04-09T04:56:12.030Z,953.77
2018-04-09T04:57:12.032Z,953.79
2018-04-09T04:58:12.028Z,953.76
2018-04-09T04:59:12.024Z,953.76
2018-04-09T05:00:12.023Z,953.82
2018-04-09T05:01:12.022Z,953.81
2018-04-09T05:02:12.017Z,953.84
2018-04-09T05:03:12.012Z,953.81
2018-04-09T05:04:12.015Z,953.78
2018-04-09T05:05:12.013Z,953.86
2018-04-09T05:06:12.008Z,953.87
2018-04-09T05:07:12.007Z,953.85
2018-04-09T05:08:12.006Z,953.85
2018-04-09T05:09:12.008Z,953.87
2018-04-09T05:10:11.997Z,953.86
2018-04-09T05:11:12.002Z,953.86
2018-04-09T05:12:11.988Z,953.84
2018-04-09T05:13:11.988Z,953.82
2018-04-09T05:14:11.987Z,953.85
2018-04-09T05:15:12.001Z,953.82
2018-04-09T05:16:11.981Z,953.87
2018-04-09T05:17:11.979Z,953.88
2018-04-09T05:18:11.977Z,953.88
2018-04-09T05:19:11.976Z,953.92
2018-04-09T05:20:11.972Z,953.92
2018-04-09T05:21:11.971Z,953.92
2018-04-09T05:22:11.967Z,953.93
2018-04-09T05:23:11.966Z,953.93
2018-04-09T05:24:11.960Z,953.87
2018-04-09T05:25:11.962Z,953.92
2018-04-09T05:26:11.962Z,953.91
2018-04-09T05:27:11.955Z,953.95
2018-04-09T05:28:11.955Z,953.96
2018-04-09T05:29:11.955Z,953.97
2018-04-09T05:30:11.950Z,953.95
2018-04-09T05:31:11.945Z,953.98
2018-04-09T05:32:11.946Z,953.96
2018-04-09T05:33:11.943Z,953.97
2018-04-09T05:34:11.945Z,953.93
2018-04-09T05:35:11.940Z,953.91
2018-04-09T05:36:11.940Z,953.94
2018-04-09T05:37:11.957Z,953.88
2018-04-09T05:38:11.933Z,953.90
2018-04-09T05:39:11.928Z,953.89
2018-04-09T05:40:11.928Z,953.88
2018-04-09T05:41:11.927Z,953.86
2018-04-09T05:42:11.924Z,953.89
2018-04-09T05:43:11.925Z,953.89
2018-04-09T05:44:11.921Z,953.86
2018-04-09T05:45:11.918Z,953.89
2018-04-09T05:46:11.918Z,953.89
2018-04-09T05:47:11.913Z,953.91
2018-04-09T05:48:11.913Z,953.89
2018-04-09T05:49:11.911Z,953.94
2018-04-09T05:50:11.909Z,953.88
2018-04-09T05:51:11.908Z,953.94
2018-04-09T05:52:11.906Z,953.95
2018-04-09T05:53:11.905Z,953.98
2018-04-09T05:54:11.908Z,953.98
2018-04-09T05:55:11.901Z,953.96
2018-04-09T05:56:11.897Z,953.98
2018-04-09T05:57:11.901Z,953.86
2018-04-09T05:58:11.899Z,953.83
2018-04-09T05:59:11.893Z,953.87
2018-04-09T06:00:11.894Z,953.88
2018-04-09T06:01:11.893Z,953.85
2018-04-09T06:02:11.893Z,953.86
2018-04-09T06:03:11.890Z,953.83
2018-04-09T06:04:11.888Z,953.85
2018-04-09T06:05:11.891Z,953.84
2018-04-09T06:06:11.885Z,953.83
2018-04-09T06:07:11.894Z,953.86
2018-04-09T06:08:11.884Z,953.82
2018-04-09T06:09:11.890Z,953.81
2018-04-09T06:10:11.882Z,953.82
2018-04-09T06:11:11.884Z,953.80
2018-04-09T06:12:11.877Z,953.82
2018-04-09T06:13:11.877Z,953.83
2018-04-09T06:14:11.878Z,953.79
2018-04-09T06:15:11.878Z,953.77
2018-04-09T06:16:11.936Z,953.77
2018-04-09T06:17:11.877Z,953.82
2018-04-09T06:18:11.875Z,953.78
2018-04-09T06:19:11.871Z,953.81
2018-04-09T06:20:11.870Z,953.77
2018-04-09T06:21:11.872Z,953.76
2018-04-09T06:22:11.869Z,953.73
2018-04-09T06:23:11.867Z,953.77
2018-04-09T06:24:11.875Z,953.76
2018-04-09T06:25:11.870Z,953.77
2018-04-09T06:26:11.870Z,953.76
2018-04-09T06:27:11.869Z,953.79
2018-04-09T06:28:11.866Z,953.70
2018-04-09T06:29:11.866Z,953.73
2018-04-09T06:30:11.871Z,953.67
2018-04-09T06:31:11.865Z,953.68
2018-04-09T06:32:11.865Z,953.71
2018-04-09T06:33:11.864Z,953.69
2018-04-09T06:34:11.866Z,953.70
2018-04-09T06:35:11.871Z,953.71
2018-04-09T06:36:11.867Z,953.70
2018-04-09T06:37:11.869Z,953.68
2018-04-09T06:38:11.901Z,953.70
2018-04-09T06:39:11.873Z,953.70
2018-04-09T06:40:11.881Z,953.74
2018-04-09T06:41:11.872Z,953.74
2018-04-09T06:42:11.876Z,953.72
2018-04-09T06:43:11.876Z,953.71
2018-04-09T06:44:11.877Z,953.73
2018-04-09T06:45:11.878Z,953.65
2018-04-09T06:46:11.884Z,953.74
2018-04-09T06:47:11.883Z,953.72
2018-04-09T06:48:11.886Z,953.67
2018-04-09T06:49:11.891Z,953.67
2018-04-09T06:50:11.895Z,953.73
2018-04-09T06:51:11.896Z,953.68
2018-04-09T06:52:11.924Z,953.67
2018-04-09T06:53:11.906Z,953.72
2018-04-09T06:54:11.912Z,953.72
2018-04-09T06:55:11.915Z,953.66
2018-04-09T06:56:11.920Z,953.68
2018-04-09T06:57:11.925Z,953.74
2018-04-09T06:58:11.932Z,953.66
2018-04-09T06:59:11.941Z,953.65
2018-04-09T07:00:13.506Z,953.66
2018-04-09T07:01:11.953Z,953.64
2018-04-09T07:02:11.960Z,953.65
2018-04-09T07:03:11.965Z,953.64
2018-04-09T07:04:11.968Z,953.61
2018-04-09T07:05:11.972Z,953.63
2018-04-09T07:06:11.976Z,953.66
2018-04-09T07:07:11.984Z,953.71
2018-04-09T07:08:11.989Z,953.72
2018-04-09T07:09:11.997Z,953.72
2018-04-09T07:10:12.006Z,953.73
2018-04-09T07:11:12.009Z,953.75
2018-04-09T07:12:12.028Z,953.73
2018-04-09T07:13:12.023Z,953.74
2018-04-09T07:14:12.036Z,953.73
2018-04-09T07:15:12.037Z,953.73
2018-04-09T07:16:12.048Z,953.79
2018-04-09T07:17:12.052Z,953.76
2018-04-09T07:18:12.063Z,953.79
2018-04-09T07:19:12.066Z,953.80
2018-04-09T07:20:12.080Z,953.83
2018-04-09T07:21:12.084Z,953.82
2018-04-09T07:22:12.095Z,953.83
2018-04-09T07:23:12.098Z,953.85
2018-04-09T07:24:12.110Z,953.84
2018-04-09T07:25:12.121Z,953.85
2018-04-09T07:26:12.123Z,953.82
2018-04-09T07:27:12.130Z,953.84
2018-04-09T07:28:12.152Z,953.87
2018-04-09T07:29:12.148Z,953.87
2018-04-09T07:30:12.158Z,953.84
2018-04-09T07:31:12.202Z,953.86
2018-04-09T07:32:12.179Z,953.84
2018-04-09T07:33:12.184Z,953.85
2018-04-09T07:34:12.193Z,953.87
2018-04-09T07:35:12.202Z,953.84
2018-04-09T07:36:12.212Z,953.84
2018-04-09T07:37:12.222Z,953.88
2018-04-09T07:38:12.236Z,953.87
2018-04-09T07:39:12.252Z,953.91
2018-04-09T07:40:12.251Z,953.93
2018-04-09T07:41:12.264Z,953.94
2018-04-09T07:42:12.271Z,953.99
2018-04-09T07:43:12.290Z,953.99
2018-04-09T07:44:12.298Z,954.04
2018-04-09T07:45:12.304Z,954.07
2018-04-09T07:46:12.314Z,954.07
2018-04-09T07:47:12.322Z,954.00
2018-04-09T07:48:12.333Z,954.09
2018-04-09T07:49:12.346Z,954.07
2018-04-09T07:50:12.358Z,954.02
2018-04-09T07:51:12.376Z,954.04
2018-04-09T07:52:12.390Z,954.09
2018-04-09T07:53:12.389Z,954.12
2018-04-09T07:54:12.400Z,954.11
2018-04-09T07:55:12.413Z,954.15
2018-04-09T07:56:12.423Z,954.21
2018-04-09T07:57:12.431Z,954.22
2018-04-09T07:58:12.443Z,954.21
2018-04-09T07:59:12.455Z,954.28
2018-04-09T08:00:12.469Z,954.26
2018-04-09T08:01:12.475Z,954.25
2018-04-09T08:02:12.488Z,954.22
2018-04-09T08:03:12.498Z,954.24
2018-04-09T08:04:12.511Z,954.23
2018-04-09T08:05:12.522Z,954.23
2018-04-09T08:06:12.587Z,954.16
2018-04-09T08:07:12.551Z,954.17
2018-04-09T08:08:12.559Z,954.11
2018-04-09T08:09:12.571Z,954.10
2018-04-09T08:10:12.583Z,954.09
2018-04-09T08:11:12.596Z,954.08
2018-04-09T08:12:12.619Z,954.12
2018-04-09T08:13:12.620Z,954.12
2018-04-09T08:14:12.632Z,954.08
2018-04-09T08:15:12.647Z,954.09
2018-04-09T08:16:12.657Z,954.09
2018-04-09T08:17:12.668Z,954.10
2018-04-09T08:18:12.680Z,954.11
2018-04-09T08:19:12.693Z,954.05
2018-04-09T08:20:12.703Z,954.11
2018-04-09T08:21:12.716Z,954.10
2018-04-09T08:22:12.730Z,954.07
2018-04-09T08:23:12.738Z,954.08
2018-04-09T08:24:12.828Z,954.10
2018-04-09T08:25:12.761Z,954.05
2018-04-09T08:26:12.771Z,954.08
2018-04-09T08:27:12.780Z,954.06
2018-04-09T08:28:12.793Z,954.09
2018-04-09T08:29:12.804Z,954.06
2018-04-09T08:30:12.813Z,954.11
2018-04-09T08:31:12.825Z,954.07
2018-04-09T08:32:12.834Z,954.07
2018-04-09T08:33:12.846Z,954.07
2018-04-09T08:34:12.858Z,954.08
2018-04-09T08:35:12.864Z,954.11
2018-04-09T08:36:12.874Z,954.11
2018-04-09T08:37:12.884Z,954.13
2018-04-09T08:38:12.895Z,954.16
2018-04-09T08:39:12.906Z,954.17
2018-04-09T08:40:12.914Z,954.15
2018-04-09T08:41:12.923Z,954.14
2018-04-09T08:42:12.934Z,954.10
2018-04-09T08:43:12.942Z,954.12
2018-04-09T08:44:12.951Z,954.11
2018-04-09T08:45:12.961Z,954.11
2018-04-09T08:46:12.971Z,954.09
2018-04-09T08:47:12.979Z,954.04
2018-04-09T08:48:12.990Z,954.05
2018-04-09T08:49:12.998Z,954.04
2018-04-09T08:50:13.006Z,954.06
2018-04-09T08:51:13.020Z,954.02
2018-04-09T08:52:13.033Z,954.01
2018-04-09T08:53:13.034Z,953.98
2018-04-09T08:54:13.039Z,954.01
2018-04-09T08:55:13.049Z,953.96
2018-04-09T08:56:13.057Z,953.96
2018-04-09T08:57:13.066Z,953.97
2018-04-09T08:58:13.075Z,953.99
2018-04-09T08:59:13.088Z,953.99
2018-04-09T09:00:13.093Z,954.04
2018-04-09T09:01:13.098Z,954.02
2018-04-09T09:02:13.108Z,954.04
2018-04-09T09:03:13.117Z,954.03
2018-04-09T09:04:13.124Z,953.97
2018-04-09T09:05:13.133Z,953.98
2018-04-09T09:06:13.151Z,953.98
2018-04-09T09:07:13.158Z,954.00
2018-04-09T09:08:13.159Z,953.99
2018-04-09T09:09:13.166Z,953.96
2018-04-09T09:10:13.177Z,953.96
2018-04-09T09:11:13.181Z,953.97
2018-04-09T09:12:13.189Z,953.96
2018-04-09T09:13:13.198Z,953.95
2018-04-09T09:14:13.206Z,953.95
2018-04-09T09:15:13.215Z,953.92
2018-04-09T09:16:13.222Z,953.93
2018-04-09T09:17:13.232Z,953.94
2018-04-09T09:18:13.238Z,953.86
2018-04-09T09:19:13.248Z,953.86
2018-04-09T09:20:13.257Z,953.89
2018-04-09T09:21:13.288Z,953.88
2018-04-09T09:22:13.275Z,953.88
2018-04-09T09:23:13.285Z,953.87
2018-04-09T09:24:13.291Z,953.85
2018-04-09T09:25:13.301Z,953.83
2018-04-09T09:26:13.309Z,953.84
2018-04-09T09:27:13.317Z,953.83
2018-04-09T09:28:13.325Z,953.84
2018-04-09T09:29:13.335Z,953.83
2018-04-09T09:30:13.349Z,953.81
2018-04-09T09:31:13.353Z,953.83
2018-04-09T09:32:13.366Z,953.85
2018-04-09T09:33:13.369Z,953.84
2018-04-09T09:34:13.388Z,953.85
2018-04-09T09:35:13.399Z,953.86
2018-04-09T09:36:13.406Z,953.84
2018-04-09T09:37:13.405Z,953.84
2018-04-09T09:38:13.455Z,953.95
2018-04-09T09:39:13.426Z,953.96
2018-04-09T09:40:13.440Z,953.92
2018-04-09T09:41:13.572Z,953.92
2018-04-09T09:42:14.497Z,953.93
2018-04-09T09:43:13.479Z,953.92
2018-04-09T09:44:13.530Z,953.88
2018-04-09T09:45:13.535Z,953.87
2018-04-09T09:46:13.553Z,953.86
2018-04-09T09:47:13.494Z,953.90
2018-04-09T09:48:13.506Z,953.86
2018-04-09T09:49:13.531Z,953.84
2018-04-09T09:50:13.598Z,953.80
2018-04-09T09:51:13.531Z,953.76
2018-04-09T09:52:13.545Z,953.74
2018-04-09T09:53:13.559Z,953.75
2018-04-09T09:54:13.574Z,953.78
2018-04-09T09:55:13.599Z,953.83
2018-04-09T09:56:13.635Z,953.75
2018-04-09T09:57:13.589Z,953.68
2018-04-09T09:58:13.598Z,953.70
2018-04-09T09:59:13.650Z,953.69
2018-04-09T10:00:13.658Z,953.71
2018-04-09T10:01:13.624Z,953.66
2018-04-09T10:02:13.637Z,953.63
2018-04-09T10:03:13.641Z,953.60
2018-04-09T10:04:13.650Z,953.64
2018-04-09T10:05:13.661Z,953.62
2018-04-09T10:06:13.698Z,953.63
2018-04-09T10:07:13.677Z,953.64
2018-04-09T10:08:13.686Z,953.62
2018-04-09T10:09:13.694Z,953.61
2018-04-09T10:10:13.704Z,953.63
2018-04-09T10:11:13.713Z,953.61
2018-04-09T10:12:13.726Z,953.60
2018-04-09T10:13:13.726Z,953.57
2018-04-09T10:14:13.738Z,953.56
2018-04-09T10:15:13.745Z,953.55
2018-04-09T10:16:13.754Z,953.53
2018-04-09T10:17:13.768Z,953.55
2018-04-09T10:18:13.772Z,953.51
2018-04-09T10:19:13.778Z,953.54
2018-04-09T10:20:13.790Z,953.54
2018-04-09T10:21:13.792Z,953.56
2018-04-09T10:22:13.802Z,953.55
2018-04-09T10:23:13.810Z,953.58
2018-04-09T10:24:13.820Z,953.58
2018-04-09T10:25:13.856Z,953.58
2018-04-09T10:26:13.834Z,953.57
2018-04-09T10:27:13.840Z,953.59
2018-04-09T10:28:13.851Z,953.56
2018-04-09T10:29:13.886Z,953.56
2018-04-09T10:30:13.875Z,953.52
2018-04-09T10:31:13.878Z,953.51
2018-04-09T10:32:13.883Z,953.47
2018-04-09T10:33:13.895Z,953.47
2018-04-09T10:34:13.909Z,953.46
2018-04-09T10:35:13.905Z,953.43
2018-04-09T10:36:13.916Z,953.43
2018-04-09T10:37:13.943Z,953.40
2018-04-09T10:38:13.993Z,953.45
2018-04-09T10:39:13.952Z,953.45
2018-04-09T10:40:13.959Z,953.35
2018-04-09T10:41:13.953Z,953.42
2018-04-09T10:42:13.965Z,953.40
2018-04-09T10:43:13.969Z,953.40
2018-04-09T10:44:14.002Z,953.39
2018-04-09T10:45:13.983Z,953.36
2018-04-09T10:46:13.993Z,953.37
2018-04-09T10:47:14.020Z,953.34
2018-04-09T10:48:14.006Z,953.30
2018-04-09T10:49:14.022Z,953.31
2018-04-09T10:50:14.020Z,953.27
2018-04-09T10:51:14.027Z,953.24
2018-04-09T10:52:14.034Z,953.24
2018-04-09T10:53:14.045Z,953.27
2018-04-09T10:54:14.056Z,953.23
2018-04-09T10:55:14.059Z,953.18
2018-04-09T10:56:14.110Z,953.22
2018-04-09T10:57:14.071Z,953.22
2018-04-09T10:58:14.133Z,953.20
2018-04-09T10:59:14.086Z,953.20
2018-04-09T11:00:14.094Z,953.18
2018-04-09T11:01:14.121Z,953.19
2018-04-09T11:02:14.108Z,953.20
2018-04-09T11:03:14.117Z,953.17
2018-04-09T11:04:14.126Z,953.16
2018-04-09T11:05:14.131Z,953.18
2018-04-09T11:06:14.141Z,953.21
2018-04-09T11:07:14.146Z,953.19
2018-04-09T11:08:14.171Z,953.17
2018-04-09T11:09:14.159Z,953.18
2018-04-09T11:10:14.163Z,953.15
2018-04-09T11:11:14.186Z,953.11
2018-04-09T11:12:14.179Z,953.09
2018-04-09T11:13:14.191Z,953.07
2018-04-09T11:14:14.196Z,953.09
2018-04-09T11:15:14.228Z,953.01
2018-04-09T11:16:14.210Z,952.98
2018-04-09T11:17:14.215Z,952.98
2018-04-09T11:18:14.251Z,952.99
2018-04-09T11:19:14.234Z,952.98
2018-04-09T11:20:14.235Z,952.96
2018-04-09T11:21:14.272Z,952.92
2018-04-09T11:22:14.254Z,952.96
2018-04-09T11:23:14.262Z,952.93
2018-04-09T11:24:14.266Z,952.93
2018-04-09T11:25:14.271Z,952.92
2018-04-09T11:26:14.279Z,952.91
2018-04-09T11:27:14.286Z,952.92
2018-04-09T11:28:14.298Z,952.90
2018-04-09T11:29:14.300Z,952.91
2018-04-09T11:30:14.310Z,952.88
2018-04-09T11:31:14.314Z,952.86
2018-04-09T11:32:14.319Z,952.87
2018-04-09T11:33:14.331Z,952.84
2018-04-09T11:34:14.333Z,952.86
2018-04-09T11:35:14.341Z,952.81
2018-04-09T11:36:14.358Z,952.80
2018-04-09T11:37:14.361Z,952.82
2018-04-09T11:38:14.369Z,952.81
2018-04-09T11:39:14.370Z,952.78
2018-04-09T11:40:14.379Z,952.79
2018-04-09T11:41:14.425Z,952.78
2018-04-09T11:42:14.394Z,952.72
2018-04-09T11:43:14.400Z,952.73
2018-04-09T11:44:14.407Z,952.75
2018-04-09T11:45:14.421Z,952.67
2018-04-09T11:46:14.429Z,952.66
2018-04-09T11:47:14.428Z,952.63
2018-04-09T11:48:14.437Z,952.64
2018-04-09T11:49:14.444Z,952.61
2018-04-09T11:50:14.452Z,952.64
2018-04-09T11:51:14.479Z,952.62
2018-04-09T11:52:14.493Z,952.57
2018-04-09T11:53:14.474Z,952.64
2018-04-09T11:54:14.497Z,952.59
2018-04-09T11:55:14.487Z,952.60
2018-04-09T11:56:14.538Z,952.62
2018-04-09T11:57:14.500Z,952.64
2018-04-09T11:58:14.507Z,952.65
2018-04-09T11:59:14.528Z,952.69
2018-04-09T12:00:14.542Z,952.67
2018-04-09T12:01:14.531Z,952.67
2018-04-09T12:02:14.561Z,952.66
2018-04-09T12:03:14.536Z,952.67
2018-04-09T12:04:14.545Z,952.61
2018-04-09T12:05:14.550Z,952.60
2018-04-09T12:06:14.559Z,952.62
2018-04-09T12:07:14.565Z,952.61
2018-04-09T12:08:14.566Z,952.63
2018-04-09T12:09:14.595Z,952.62
2018-04-09T12:10:14.584Z,952.62
2018-04-09T12:11:14.592Z,952.62
2018-04-09T12:12:14.598Z,952.64
2018-04-09T12:13:14.605Z,952.64
2018-04-09T12:14:14.611Z,952.65
2018-04-09T12:15:14.618Z,952.66
2018-04-09T12:16:14.623Z,952.68
2018-04-09T12:17:14.630Z,952.61
2018-04-09T12:18:14.661Z,952.65
2018-04-09T12:19:14.645Z,952.63
2018-04-09T12:20:14.653Z,952.61
2018-04-09T12:21:14.660Z,952.63
2018-04-09T12:22:14.731Z,952.61
2018-04-09T12:23:14.698Z,952.62
2018-04-09T12:24:14.687Z,952.62
2018-04-09T12:25:14.687Z,952.60
2018-04-09T12:26:14.697Z,952.55
2018-04-09T12:27:14.721Z,952.60
2018-04-09T12:28:14.708Z,952.58